Regina International Airport
CYQR : now visible

Airfield :











YOU CAN JOIN US ON...

 
LOGIN :

Register | Disclaimer

   EN    FR    IT 

 









Legend :    VFR   Marginal VFR   IFR   Intensive IFR   Very Intensive IFR
Visi :
Ceiling :
>= 8 km
>= 3000ft
5 to 8 km
1000 to 3000 ft
1500m to 5 km
500 to 1000 ft
800 to 1500m
200 to 500 ft
< 800m
< 200 ft
Symbols :   Thunderstorms  Fog  Heavy snow  Heavy precipitations  Wind > 20 kt






- Airport Elevation : 1894 ft
- IATA code : YQR


CYQR - Regina International

CURRENT METAR :
  • 020600Z 03008KT 15SM BKN120 M12/M15 A2986 RMK AC5 SLP157

EXPIRED METARs :
  • 020500Z 05004KT 15SM OVC140 M11/M14 A2987 RMK AC8 SLP161
  • 012100Z 32014KT 15SM FEW250 M07/M12 A2977 RMK CI1 SLP115
  • 020400Z 05003KT 350V060 15SM BKN150 BKN250 M12/M15 A2986 RMK AC5CI2 SLP157
  • 020300Z VRB02KT 15SM BKN160 OVC250 M11/M14 A2985 RMK AC5CI3 SLP152
  • 020200Z 36004KT 15SM FEW120 FEW240 M11/M15 A2983 RMK AC1CI1 AC TR CI TR SLP146

TAF TAF CYQR
Valid from the 02 at 06:00 until the 03 at 06:00 UTC


020540Z 0206/0306 VRB03KT P6SM SCT060 BKN140
FM020800 10008KT P6SM BKN060
TEMPO 0208/0212 P6SM -SHSN OVC040
FM021200 10015KT P6SM FEW020 BKN060
FM021700 10015G25KT 6SM -SN SCT015 BKN080
TEMPO 0217/0221 2SM -SN BLSN
BECMG 0218/0220 10020G30KT
FM022100 10022G32KT 2SM -SN BLSN BKN020 OVC060
TEMPO 0221/0224 6SM -SN FEW020 BKN060
FM030000 09022G32KT 2SM -SN BLSN OVC020
TEMPO 0300/0306 3/4SM -SN BLSN VV012 RMK NXT FCST BY 021200Z
CZWG FIR / North America



MET'MAP, your aeronautical weather chart ! - Copyright ORBIFLY December 2007 - Disclaimer

ORBIFLY MET'MAP TEAM :

Programming & Development : Alexandra Zaïnal
Original concept : Baudouin d'Aumeries
Technical & hardware support : Manuel Goepfert
Assistance : Marc-Olivier Méhu




SOURCES & CREDITS :

   NOAA       Earth
Advisory